Terminal Aerodrome Forecast
Issued by NWS Shreveport, LA

Home | Current Version | Previous Version | Text Only | Print | Product List | Glossary On
Versions: 1 2 3 4 5 6 7 8 9 10 11 12 13 14 15 16 17 18
000
FTUS44 KSHV 211120
TAFGGG
TAF
KGGG 211120Z 2112/2212 00000KT P6SM BKN100
     FM211700 17007KT P6SM SCT070
     FM220000 18005KT P6SM SKC
      TEMPO 2210/2212 4SM BR BKN015=

USA.gov is the U.S. government's official web portal to all federal, state and local government web resources and services.